Clifton, Kansas
Current Conditions -  °F | °C
As of 6:55 PM on Tuesday 27 Jan 2015 (Local Time) from KCNK Reporting Station
Clear Clear  
Wind Chill: 51°   Ceiling: Unl
Heat Index: 51°   Visibility: 10mi
Dew Point: 33°   Wind: 5mph
Humidity: 50%   Direction: 90°E
Pressure: 29.95"   Gusts: NA
Location:  39.57°N, 97.28°W
Report Text: KCNK 280055Z AUTO 09004KT 10SM CLR 11/01 A2995 RMK AO2 SLP147 T01060006
Loading
Personal Weather Stations






























Interactive Weather Map New forecast layout! Learn more

10-Day Weather Forecast

Advertisements
Track Severe Weather on mobile